Time;durP1;ratioP1;P1;durP2;ratioP2;P2;SDS_P1;SDS_P2;PMS_P1;PMS_P2;Temp;Humidity;BMP_temperature;BMP_pressure;BME280_temperature;BME280_humidity;BME280_pressure;Samples;Min_cycle;Max_cycle;Signal;HPM_P1;HPM_P2
2022/03/07 00:01:45;;;;;;;12.57;8.15;;;;;;;;;;4998758;28;20041;-82
2022/03/07 00:04:14;;;;;;;13.38;8.65;;;2.50;82.90;;;;;;4998171;28;20128;-82
2022/03/07 00:06:40;;;;;;;13.50;8.52;;;1.70;86.60;;;;;;4997833;28;20196;-81
2022/03/07 00:09:05;;;;;;;12.38;7.95;;;2.80;85.10;;;;;;4993021;28;20057;-81
2022/03/07 00:11:31;;;;;;;16.83;8.45;;;4.10;86.90;;;;;;4998260;28;20045;-84
2022/03/07 00:13:57;;;;;;;13.23;8.15;;;5.40;86.90;;;;;;4990307;28;20026;-84
2022/03/07 00:16:23;;;;;;;13.63;8.15;;;4.00;87.80;;;;;;4994908;28;20041;-85
2022/03/07 00:18:49;;;;;;;11.68;7.50;;;;;;;;;;4997573;28;20225;-80
2022/03/07 00:21:15;;;;;;;12.10;7.90;;;;;;;;;;5013948;28;20030;-82
2022/03/07 00:23:40;;;;;;;15.05;8.35;;;2.70;85.30;;;;;;5013193;28;20041;-81
2022/03/07 00:26:06;;;;;;;12.45;7.53;;;2.40;86.70;;;;;;5006391;28;20026;-84
2022/03/07 00:28:32;;;;;;;12.55;8.25;;;2.30;87.30;;;;;;4989594;28;20125;-81
2022/03/07 00:30:58;;;;;;;13.18;8.25;;;1.80;87.30;;;;;;4992592;28;20052;-85
2022/03/07 00:33:24;;;;;;;14.18;8.10;;;5.40;90.40;;;;;;4999174;28;20030;-84
2022/03/07 00:35:50;;;;;;;13.13;8.52;;;3.30;90.10;;;;;;5011184;28;20431;-80
2022/03/07 00:38:15;;;;;;;12.93;7.50;;;2.50;90.80;;;;;;4992828;28;20061;-81
2022/03/07 00:40:41;;;;;;;11.73;8.10;;;;;;;;;;4998287;28;20037;-81
2022/03/07 00:43:08;;;;;;;12.95;8.32;;;2.40;90.60;;;;;;5007780;28;20543;-79
2022/03/07 00:45:35;;;;;;;14.02;7.93;;;3.80;91.20;;;;;;4992908;28;20073;-80
2022/03/07 00:48:00;;;;;;;12.55;7.68;;;4.10;91.10;;;;;;4996955;28;20034;-83
2022/03/07 00:50:26;;;;;;;11.45;7.10;;;;;;;;;;4998923;28;20033;-83
2022/03/07 00:52:52;;;;;;;12.45;7.50;;;2.50;90.80;;;;;;4998036;28;20022;-81
2022/03/07 00:55:18;;;;;;;12.20;7.38;;;;;;;;;;5015707;28;20365;-80
2022/03/07 00:57:44;;;;;;;12.20;6.88;;;2.40;91.00;;;;;;4998972;28;20124;-81
2022/03/07 01:00:12;;;;;;;13.70;7.45;;;5.20;92.10;;;;;;4993581;28;20033;-82
2022/03/07 01:02:38;;;;;;;11.40;7.00;;;2.40;91.40;;;;;;5011201;28;20034;-81
2022/03/07 01:05:05;;;;;;;12.45;7.72;;;3.90;92.50;;;;;;4995919;28;20041;-81
2022/03/07 01:07:31;;;;;;;11.98;7.45;;;2.50;92.10;;;;;;4996013;28;20057;-80
2022/03/07 01:09:57;;;;;;;12.25;7.55;;;;;;;;;;5001156;28;20508;-80
2022/03/07 01:12:23;;;;;;;12.80;7.78;;;;;;;;;;4997893;28;20487;-80
2022/03/07 01:14:49;;;;;;;11.13;7.53;;;2.20;92.50;;;;;;4998073;28;20030;-82
2022/03/07 01:17:15;;;;;;;10.38;6.78;;;0.30;92.00;;;;;;4996080;28;20040;-83
2022/03/07 01:19:40;;;;;;;13.38;7.28;;;2.10;93.20;;;;;;4997238;28;20042;-81
2022/03/07 01:22:06;;;;;;;12.98;7.72;;;2.00;93.10;;;;;;4993557;28;20033;-82
2022/03/07 01:24:32;;;;;;;11.60;6.97;;;4.90;94.00;;;;;;4996030;28;20026;-86
2022/03/07 01:26:58;;;;;;;12.55;7.07;;;3.70;94.20;;;;;;5013016;28;20103;-80
2022/03/07 01:29:23;;;;;;;12.00;7.13;;;3.90;93.70;;;;;;4992764;28;20034;-78
2022/03/07 01:31:49;;;;;;;11.80;6.70;;;3.60;94.70;;;;;;4998539;28;20033;-80
2022/03/07 01:34:15;;;;;;;12.55;6.88;;;1.30;94.50;;;;;;5014719;28;20479;-82
2022/03/07 01:36:41;;;;;;;11.15;6.93;;;3.90;94.70;;;;;;4994781;28;20036;-85
2022/03/07 01:39:07;;;;;;;11.73;7.28;;;4.30;94.70;;;;;;4995200;28;20427;-82
2022/03/07 01:41:33;;;;;;;9.02;6.55;;;1.80;94.10;;;;;;5012842;28;20100;-80
2022/03/07 01:43:58;;;;;;;11.45;7.00;;;1.60;94.90;;;;;;5018796;28;20026;-80
2022/03/07 01:46:24;;;;;;;13.38;7.25;;;1.00;94.40;;;;;;4992827;28;20053;-82
2022/03/07 01:48:50;;;;;;;10.48;7.22;;;4.00;95.60;;;;;;4993828;28;20025;-81
2022/03/07 01:51:17;;;;;;;10.05;6.93;;;2.90;95.40;;;;;;4999797;28;20029;-83
2022/03/07 01:53:43;;;;;;;10.70;6.47;;;;;;;;;;4997852;28;20053;-81
2022/03/07 01:56:08;;;;;;;12.25;6.95;;;1.70;95.30;;;;;;4997210;28;20014;-83
2022/03/07 01:58:35;;;;;;;11.38;6.63;;;1.60;95.60;;;;;;4999601;28;20513;-81
2022/03/07 02:01:02;;;;;;;11.98;6.63;;;1.00;95.60;;;;;;4999386;28;20434;-82
2022/03/07 02:03:27;;;;;;;10.40;6.70;;;4.50;96.90;;;;;;4987471;28;20026;-80
2022/03/07 02:05:54;;;;;;;10.05;6.25;;;3.60;96.80;;;;;;4996170;28;20026;-80
2022/03/07 02:08:19;;;;;;;11.07;6.22;;;0.90;96.00;;;;;;5010945;28;20026;-81
2022/03/07 02:10:45;;;;;;;13.80;6.63;;;4.20;97.10;;;;;;4994564;28;20087;-81
2022/03/07 02:13:18;;;;;;;10.65;6.45;;;2.60;97.10;;;;;;4999534;28;20034;-81
2022/03/07 02:15:51;;;;;;;10.32;6.60;;;4.60;97.10;;;;;;4997763;28;20029;-81
2022/03/07 02:18:17;;;;;;;10.73;6.25;;;3.10;97.00;;;;;;4997563;28;20040;-84
2022/03/07 02:20:42;;;;;;;9.85;6.70;;;3.50;97.40;;;;;;5015121;28;20120;-84
2022/03/07 02:23:08;;;;;;;10.10;6.20;;;3.70;97.60;;;;;;4997800;28;20034;-81
2022/03/07 02:25:34;;;;;;;9.65;6.70;;;0.90;96.80;;;;;;4994518;28;20495;-82
2022/03/07 02:28:00;;;;;;;11.38;6.63;;;1.20;96.90;;;;;;5014605;28;20124;-80
2022/03/07 02:30:26;;;;;;;10.77;6.53;;;;;;;;;;4996200;28;20116;-81
2022/03/07 02:32:52;;;;;;;12.05;6.82;;;;;;;;;;5002903;28;20032;-81
2022/03/07 02:35:18;;;;;;;11.07;6.82;;;;;;;;;;4995427;28;20045;-83
2022/03/07 02:37:44;;;;;;;10.32;6.50;;;;;;;;;;5009178;28;20030;-81
2022/03/07 02:40:12;;;;;;;9.60;6.45;;;1.30;98.10;;;;;;4999436;28;20034;-82
2022/03/07 02:42:37;;;;;;;11.48;7.25;;;1.20;98.80;;;;;;5000606;28;20062;-85
2022/03/07 02:45:04;;;;;;;11.27;6.78;;;1.10;99.20;;;;;;4985385;28;20404;-83
2022/03/07 02:47:30;;;;;;;12.15;6.97;;;1.30;99.30;;;;;;4991950;28;20033;-80
2022/03/07 02:49:55;;;;;;;11.82;6.25;;;4.20;99.60;;;;;;4993191;28;20084;-81
2022/03/07 02:52:21;;;;;;;11.48;6.82;;;;;;;;;;4989824;28;20021;-81
2022/03/07 02:54:47;;;;;;;10.95;6.10;;;1.30;98.30;;;;;;4997763;28;20026;-82
2022/03/07 02:57:13;;;;;;;9.25;5.95;;;1.20;98.40;;;;;;4995649;28;20030;-83
2022/03/07 03:02:08;;;;;;;10.68;6.88;;;1.30;98.70;;;;;;5029305;28;20042;-81
2022/03/07 03:04:34;;;;;;;10.25;6.28;;;1.20;98.80;;;;;;5024578;28;20065;-81
2022/03/07 03:07:01;;;;;;;11.27;6.50;;;1.20;98.90;;;;;;5028274;28;20034;-82
2022/03/07 03:09:27;;;;;;;9.93;6.10;;;1.10;99.30;;;;;;5026377;28;20049;-81
2022/03/07 03:11:54;;;;;;;10.38;6.05;;;1.20;99.30;;;;;;5027030;28;20068;-81
2022/03/07 03:14:20;;;;;;;9.85;5.85;;;1.20;98.90;;;;;;5020250;28;20113;-81
2022/03/07 03:16:46;;;;;;;9.65;5.50;;;1.20;98.90;;;;;;5036372;28;20112;-80
2022/03/07 03:19:15;;;;;;;9.65;6.00;;;1.10;99.10;;;;;;5020700;28;20030;-81
2022/03/07 03:21:41;;;;;;;10.13;5.88;;;1.10;99.40;;;;;;5020770;28;20034;-81
2022/03/07 03:24:07;;;;;;;11.10;6.03;;;1.10;99.40;;;;;;5021286;28;20241;-82
2022/03/07 03:26:33;;;;;;;8.45;5.72;;;1.20;98.70;;;;;;5015023;28;20505;-80
2022/03/07 03:28:59;;;;;;;10.75;6.50;;;1.10;99.80;;;;;;5032865;28;20034;-82
2022/03/07 03:31:26;;;;;;;10.07;6.40;;;2.10;99.60;;;;;;5022057;28;20076;-80
2022/03/07 03:33:53;;;;;;;9.40;5.68;;;1.20;98.90;;;;;;5010479;28;20064;-79
2022/03/07 03:36:21;;;;;;;9.63;5.68;;;1.10;99.10;;;;;;5012118;28;20022;-81
2022/03/07 03:38:48;;;;;;;8.60;5.68;;;1.20;99.20;;;;;;5029687;28;20021;-80
2022/03/07 03:41:14;;;;;;;8.55;5.45;;;1.10;99.20;;;;;;5013856;28;20022;-83
2022/03/07 03:43:43;;;;;;;9.10;5.35;;;1.10;99.30;;;;;;5013004;28;20046;-82
2022/03/07 03:46:09;;;;;;;8.80;5.35;;;1.10;99.40;;;;;;5011123;28;20076;-82
2022/03/07 03:48:34;;;;;;;10.45;5.57;;;1.10;99.30;;;;;;5023948;28;20117;-82
2022/03/07 03:51:00;;;;;;;11.00;5.78;;;1.10;99.60;;;;;;5020552;28;20041;-79
2022/03/07 03:53:26;;;;;;;8.23;5.57;;;1.00;99.50;;;;;;4993602;28;20739;-81
2022/03/07 03:55:52;;;;;;;12.15;5.57;;;2.00;99.90;;;;;;5009059;28;20033;-81
2022/03/07 03:58:19;;;;;;;8.95;5.60;;;1.00;99.70;;;;;;5013553;28;20021;-80
2022/03/07 04:00:45;;;;;;;8.48;5.18;;;1.20;99.30;;;;;;5010505;28;20041;-81
2022/03/07 04:03:10;;;;;;;8.10;4.80;;;1.10;99.20;;;;;;5014694;28;20245;-80
2022/03/07 04:05:36;;;;;;;8.27;4.32;;;1.10;99.10;;;;;;5018329;28;20030;-82
2022/03/07 04:08:02;;;;;;;10.40;5.50;;;1.10;99.20;;;;;;5010686;28;20042;-79
2022/03/07 04:10:28;;;;;;;8.00;5.32;;;1.10;99.30;;;;;;5028219;28;20037;-79
2022/03/07 04:12:54;;;;;;;7.95;5.25;;;1.40;99.70;;;;;;5028244;28;20026;-80
2022/03/07 04:15:20;;;;;;;9.13;5.05;;;1.00;99.30;;;;;;5012889;28;20401;-81
2022/03/07 04:17:46;;;;;;;9.15;5.20;;;1.00;99.40;;;;;;5026134;28;20072;-82
2022/03/07 04:20:13;;;;;;;8.82;5.30;;;1.00;99.20;;;;;;5017558;28;20084;-80
2022/03/07 04:22:39;;;;;;;8.48;4.88;;;;;;;;;;5016444;28;20037;-80
2022/03/07 04:25:06;;;;;;;7.22;4.50;;;1.00;98.90;;;;;;5028142;28;20564;-81
2022/03/07 04:27:33;;;;;;;6.43;4.25;;;1.00;98.90;;;;;;5026337;28;20025;-80
2022/03/07 04:29:59;;;;;;;7.18;4.32;;;;;;;;;;5013733;28;20053;-79
2022/03/07 04:32:25;;;;;;;8.95;4.93;;;0.90;98.90;;;;;;5028560;28;20429;-80
2022/03/07 04:34:51;;;;;;;7.47;4.32;;;0.80;99.20;;;;;;5011177;28;20022;-82
2022/03/07 04:37:17;;;;;;;8.20;4.88;;;0.90;98.80;;;;;;5025956;28;20033;-81
2022/03/07 04:39:43;;;;;;;7.10;4.88;;;0.80;99.30;;;;;;5027777;28;20041;-80
2022/03/07 04:42:09;;;;;;;9.93;5.22;;;0.70;99.40;;;;;;5014356;28;20026;-80
2022/03/07 04:44:35;;;;;;;6.50;4.50;;;0.70;99.80;;;;;;5012596;28;20045;-82
2022/03/07 04:47:01;;;;;;;9.05;4.55;;;0.70;99.40;;;;;;5011947;28;20034;-81
2022/03/07 04:49:28;;;;;;;7.10;4.90;;;0.90;99.10;;;;;;5013182;28;20032;-80
2022/03/07 04:51:54;;;;;;;8.32;4.97;;;0.90;98.50;;;;;;5026609;28;20054;-80
2022/03/07 04:54:20;;;;;;;8.50;4.70;;;;;;;;;;5027134;28;20029;-80
2022/03/07 04:56:51;;;;;;;8.10;4.80;;;0.90;98.20;;;;;;5026243;28;20033;-79
2022/03/07 04:59:20;;;;;;;6.68;4.10;;;0.90;98.50;;;;;;5014345;28;20034;-81
2022/03/07 05:01:47;;;;;;;8.50;4.63;;;0.90;98.50;;;;;;5029095;28;20041;-80
2022/03/07 05:04:13;;;;;;;6.90;4.13;;;3.60;99.20;;;;;;5025462;28;20034;-80
2022/03/07 05:06:39;;;;;;;6.90;4.35;;;1.40;99.20;;;;;;5013708;28;20532;-82
2022/03/07 05:09:06;;;;;;;7.57;5.03;;;0.70;99.10;;;;;;5029835;28;20474;-81
2022/03/07 05:11:32;;;;;;;8.15;4.70;;;0.80;99.10;;;;;;5030074;28;20026;-80
2022/03/07 05:13:58;;;;;;;6.25;4.13;;;0.60;99.10;;;;;;5016038;28;20037;-81
2022/03/07 05:16:24;;;;;;;8.05;4.50;;;0.60;99.30;;;;;;5026059;28;20036;-84
2022/03/07 05:18:50;;;;;;;9.00;4.88;;;0.60;99.40;;;;;;5031272;28;20030;-82
2022/03/07 05:21:17;;;;;;;7.28;4.53;;;0.60;99.10;;;;;;5029209;28;20030;-79
2022/03/07 05:23:42;;;;;;;6.78;4.50;;;0.60;99.30;;;;;;5012111;28;20128;-80
2022/03/07 05:26:08;;;;;;;7.18;4.22;;;0.60;99.50;;;;;;5026769;28;20076;-82
2022/03/07 05:28:34;;;;;;;6.15;4.18;;;0.60;99.20;;;;;;5009683;28;20049;-81
2022/03/07 05:31:01;;;;;;;7.88;3.55;;;1.70;99.60;;;;;;5012517;28;20029;-80
2022/03/07 05:33:27;;;;;;;7.00;4.07;;;0.60;99.80;;;;;;5032067;28;20063;-81
2022/03/07 05:35:53;;;;;;;7.40;4.32;;;0.60;99.10;;;;;;5009535;28;20068;-80
2022/03/07 05:38:19;;;;;;;12.65;5.22;;;3.00;99.40;;;;;;5028795;28;20030;-80
2022/03/07 05:40:45;;;;;;;18.10;7.03;;;0.60;98.60;;;;;;5015096;28;20938;-82
2022/03/07 05:43:21;;;;;;;27.08;7.70;;;0.60;98.80;;;;;;5015896;28;20084;-78
2022/03/07 05:49:35;;;;;;;7.00;4.20;;;0.50;99.30;;;;;;5020894;28;20122;-78
2022/03/07 05:52:53;;;;;;;10.63;4.78;;;0.50;99.30;;;;;;5023960;28;20055;-79
2022/03/07 06:09:53;;;;;;;6.80;4.30;;;0.60;98.50;;;;;;5024660;28;20117;-79
2022/03/07 06:16:05;;;;;;;8.93;4.72;;;0.60;98.50;;;;;;4996389;28;20052;-77
2022/03/07 06:18:40;;;;;;;7.00;4.72;;;0.60;98.70;;;;;;5011519;28;20037;-79
2022/03/07 06:21:59;;;;;;;7.57;4.60;;;0.60;98.60;;;;;;4943015;28;20042;-78
2022/03/07 06:25:10;;;;;;;8.50;4.43;;;0.60;98.40;;;;;;4973898;28;20067;-81
2022/03/07 06:27:45;;;;;;;8.75;4.68;;;0.60;98.30;;;;;;4992332;28;20065;-78
2022/03/07 06:30:18;;;;;;;6.93;4.30;;;0.60;98.40;;;;;;5016410;28;20112;-79
2022/03/07 06:33:28;;;;;;;6.80;4.47;;;0.60;98.00;;;;;;5021243;28;20033;-78
2022/03/07 06:35:56;;;;;;;6.73;4.37;;;0.50;98.20;;;;;;5009750;28;20030;-79
2022/03/07 06:38:22;;;;;;;7.55;4.15;;;0.60;98.50;;;;;;5011192;28;20041;-82
2022/03/07 06:40:48;;;;;;;6.88;4.60;;;0.60;98.60;;;;;;5010669;28;20019;-81
2022/03/07 06:43:13;;;;;;;6.63;4.20;;;0.60;98.30;;;;;;5024832;28;20034;-80
2022/03/07 06:45:39;;;;;;;9.70;4.60;;;0.60;98.80;;;;;;5029409;28;20109;-80
2022/03/07 06:48:06;;;;;;;7.57;4.88;;;0.70;98.10;;;;;;5015536;28;20038;-80
2022/03/07 06:50:32;;;;;;;7.82;4.28;;;-0.10;97.90;;;;;;5000419;28;20034;-80
2022/03/07 06:52:58;;;;;;;8.00;4.55;;;1.00;98.40;;;;;;5009369;28;20475;-83
2022/03/07 06:55:24;;;;;;;8.82;4.43;;;;;;;;;;5022089;28;20216;-81
2022/03/07 06:57:50;;;;;;;10.93;4.57;;;0.70;97.70;;;;;;5011171;28;20059;-81
2022/03/07 07:00:17;;;;;;;6.97;4.30;;;0.70;97.80;;;;;;5009564;28;20035;-81
2022/03/07 07:02:43;;;;;;;9.25;4.88;;;;;;;;;;5015185;28;20034;-83
2022/03/07 07:05:09;;;;;;;7.75;4.57;;;0.80;97.10;;;;;;5011372;28;20038;-81
2022/03/07 07:07:36;;;;;;;7.18;4.63;;;0.90;97.30;;;;;;5013046;28;20044;-81
2022/03/07 07:10:06;;;;;;;7.50;4.72;;;0.90;97.10;;;;;;5009903;28;20034;-82
2022/03/07 07:12:33;;;;;;;7.75;4.80;;;0.90;97.30;;;;;;5009996;28;20050;-81
2022/03/07 07:14:58;;;;;;;9.38;4.45;;;0.80;97.40;;;;;;4999932;28;20335;-80
2022/03/07 07:17:24;;;;;;;8.43;4.65;;;0.80;97.30;;;;;;5007661;28;20034;-82
2022/03/07 07:19:50;;;;;;;6.50;4.13;;;0.90;97.10;;;;;;5024138;28;20038;-82
2022/03/07 07:22:15;;;;;;;6.90;4.30;;;1.00;96.70;;;;;;5009455;28;20092;-81
2022/03/07 07:24:42;;;;;;;7.45;4.55;;;1.10;96.10;;;;;;5005905;28;20045;-81
2022/03/07 07:27:07;;;;;;;7.68;4.53;;;1.10;96.10;;;;;;5020018;28;20034;-80
2022/03/07 07:29:33;;;;;;;7.30;4.53;;;1.20;95.90;;;;;;5007284;28;20163;-81
2022/03/07 07:31:59;;;;;;;8.13;4.60;;;1.30;94.80;;;;;;5026075;28;20025;-79
2022/03/07 07:34:25;;;;;;;7.55;4.80;;;1.30;95.10;;;;;;5025738;28;20116;-82
2022/03/07 07:36:51;;;;;;;7.28;4.68;;;1.40;94.70;;;;;;5016652;28;20693;-79
2022/03/07 07:39:17;;;;;;;8.88;5.15;;;3.70;94.70;;;;;;4992678;28;20038;-82
2022/03/07 07:41:42;;;;;;;8.10;4.53;;;1.40;93.80;;;;;;5009889;28;20137;-83
2022/03/07 07:44:08;;;;;;;7.15;5.00;;;1.30;94.30;;;;;;5011315;28;20029;-81
2022/03/07 07:46:34;;;;;;;10.70;4.85;;;1.80;94.40;;;;;;5027459;28;20482;-85
2022/03/07 07:49:00;;;;;;;9.38;5.07;;;1.40;93.60;;;;;;5006205;28;20030;-82
2022/03/07 07:51:26;;;;;;;9.38;5.30;;;1.40;93.80;;;;;;5012436;28;20035;-81
2022/03/07 07:53:52;;;;;;;8.80;4.80;;;1.30;93.80;;;;;;5010870;28;20037;-81
2022/03/07 07:56:18;;;;;;;6.90;4.53;;;3.20;94.30;;;;;;5015258;28;20022;-80
2022/03/07 07:58:44;;;;;;;7.45;4.55;;;1.60;93.50;;;;;;5028318;28;20041;-82
2022/03/07 08:01:09;;;;;;;9.27;4.78;;;1.80;91.80;;;;;;5014878;28;20038;-82
2022/03/07 08:03:35;;;;;;;7.78;4.38;;;1.90;91.40;;;;;;5030298;28;20037;-82
2022/03/07 08:06:01;;;;;;;12.07;4.90;;;2.00;90.80;;;;;;5011839;28;20562;-82
2022/03/07 08:08:27;;;;;;;9.48;5.18;;;2.10;90.00;;;;;;5012697;28;20027;-83
2022/03/07 08:10:53;;;;;;;9.15;4.85;;;2.10;89.60;;;;;;5022421;28;20060;-82
2022/03/07 08:13:19;;;;;;;8.02;5.25;;;2.20;88.00;;;;;;5022487;28;20026;-81
2022/03/07 08:15:45;;;;;;;9.35;5.43;;;2.30;85.60;;;;;;5012665;28;20533;-81
2022/03/07 08:18:11;;;;;;;8.70;4.85;;;2.40;85.40;;;;;;5023556;28;20054;-80
2022/03/07 08:20:36;;;;;;;11.35;5.65;;;2.60;84.00;;;;;;5009233;28;20030;-80
2022/03/07 08:23:03;;;;;;;9.57;5.07;;;2.60;82.80;;;;;;5013799;28;20026;-82
2022/03/07 08:25:29;;;;;;;8.73;5.20;;;2.80;81.60;;;;;;5030100;28;20053;-83
2022/03/07 08:27:55;;;;;;;8.05;5.18;;;2.80;77.60;;;;;;5031561;28;20091;-83
2022/03/07 08:30:23;;;;;;;10.43;5.60;;;4.00;78.60;;;;;;5015395;28;20049;-83
2022/03/07 08:32:50;;;;;;;13.00;5.20;;;3.80;79.20;;;;;;5029289;28;20034;-81
2022/03/07 08:35:16;;;;;;;8.93;5.68;;;2.70;78.20;;;;;;5007158;28;20033;-82
2022/03/07 08:37:45;;;;;;;9.23;5.45;;;2.80;77.20;;;;;;5023586;28;20466;-82
2022/03/07 08:40:13;;;;;;;12.50;5.72;;;2.80;76.20;;;;;;5024730;28;20026;-81
2022/03/07 08:42:39;;;;;;;8.90;5.18;;;2.80;76.10;;;;;;5008453;28;20032;-81
2022/03/07 08:45:06;;;;;;;9.75;5.78;;;2.90;75.50;;;;;;5007876;28;20043;-82
2022/03/07 08:47:32;;;;;;;9.27;5.68;;;3.00;74.80;;;;;;5013475;28;20030;-80
2022/03/07 08:49:58;;;;;;;9.95;5.57;;;3.40;74.00;;;;;;5009277;28;20080;-81
2022/03/07 08:52:24;;;;;;;9.10;5.70;;;3.30;72.80;;;;;;5014144;28;20030;-80
2022/03/07 08:54:50;;;;;;;13.10;6.47;;;4.80;73.10;;;;;;5027741;28;20030;-83
2022/03/07 08:57:16;;;;;;;21.70;8.40;;;3.70;72.40;;;;;;5013307;28;20024;-80
2022/03/07 08:59:43;;;;;;;11.93;6.30;;;3.30;71.70;;;;;;5015127;28;20390;-81
2022/03/07 09:02:09;;;;;;;17.20;8.18;;;3.30;70.80;;;;;;5031381;28;20054;-80
2022/03/07 09:04:40;;;;;;;25.20;8.57;;;3.50;70.80;;;;;;5014347;28;20128;-80
2022/03/07 09:07:07;;;;;;;13.15;6.30;;;3.70;69.50;;;;;;5018557;28;20026;-82
2022/03/07 09:09:35;;;;;;;11.38;5.72;;;3.90;68.40;;;;;;5009705;28;20498;-81
2022/03/07 09:12:03;;;;;;;9.45;5.65;;;5.00;68.80;;;;;;5015053;28;20056;-81
2022/03/07 09:14:28;;;;;;;10.48;5.80;;;3.60;68.30;;;;;;5014368;28;20022;-82
2022/03/07 09:16:54;;;;;;;11.25;6.70;;;3.50;68.10;;;;;;5010320;28;20041;-81
2022/03/07 09:19:20;;;;;;;11.63;6.50;;;3.50;68.10;;;;;;5030435;28;20029;-79
2022/03/07 09:21:46;;;;;;;11.20;6.03;;;3.40;68.90;;;;;;5013676;28;20052;-81
2022/03/07 09:24:11;;;;;;;10.48;6.20;;;3.50;68.60;;;;;;5018029;28;20463;-78
2022/03/07 09:26:37;;;;;;;9.93;5.68;;;3.40;67.70;;;;;;5030195;28;20026;-82
2022/03/07 09:29:03;;;;;;;8.00;5.20;;;3.50;67.80;;;;;;5012941;28;20037;-83
2022/03/07 09:31:29;;;;;;;18.95;7.00;;;4.40;67.70;;;;;;5011347;28;20018;-82
2022/03/07 09:33:54;;;;;;;11.43;5.72;;;3.60;67.00;;;;;;5010265;28;20033;-83
2022/03/07 09:36:20;;;;;;;13.98;5.90;;;3.60;67.10;;;;;;5013051;28;20038;-81
2022/03/07 09:38:46;;;;;;;9.63;5.55;;;3.50;67.20;;;;;;5008244;28;20117;-83
2022/03/07 09:41:11;;;;;;;20.67;6.82;;;3.70;67.10;;;;;;5012076;28;20402;-82
2022/03/07 09:43:37;;;;;;;10.52;5.90;;;3.50;66.70;;;;;;5019567;28;20031;-83
2022/03/07 09:46:04;;;;;;;9.90;5.88;;;3.30;67.50;;;;;;5015828;28;20485;-82
2022/03/07 09:48:30;;;;;;;14.77;5.65;;;3.00;67.90;;;;;;5018461;28;20026;-82
2022/03/07 09:50:56;;;;;;;10.77;6.03;;;3.10;67.90;;;;;;5032320;28;20033;-83
2022/03/07 09:53:22;;;;;;;9.55;5.60;;;3.00;68.40;;;;;;5011231;28;20089;-83
2022/03/07 09:55:48;;;;;;;11.00;6.97;;;2.90;68.70;;;;;;5015059;28;20022;-83
2022/03/07 09:58:14;;;;;;;12.25;6.22;;;3.10;67.80;;;;;;5015044;28;20037;-82
2022/03/07 10:00:42;;;;;;;11.98;6.30;;;3.30;68.00;;;;;;5033293;28;20469;-82
2022/03/07 10:03:14;;;;;;;9.48;6.00;;;3.70;66.80;;;;;;5018249;28;20121;-84
2022/03/07 10:05:48;;;;;;;10.18;6.50;;;3.80;65.70;;;;;;5010721;28;20061;-82
2022/03/07 10:08:50;;;;;;;9.05;5.85;;;3.80;65.60;;;;;;5014735;28;20034;-82
2022/03/07 10:11:15;;;;;;;;;;;3.90;63.60;;;;;;5015334;28;20026;-81
2022/03/07 10:13:52;;;;;;;10.90;5.85;;;4.40;63.00;;;;;;5019836;28;19924;-83
2022/03/07 10:16:20;;;;;;;9.25;5.68;;;5.10;60.90;;;;;;5012025;28;20026;-84
2022/03/07 10:18:54;;;;;;;9.43;6.07;;;5.40;59.00;;;;;;5015077;28;20113;-83
2022/03/07 10:21:25;;;;;;;8.50;5.72;;;5.90;57.90;;;;;;5024577;28;20060;-82
2022/03/07 10:23:57;;;;;;;9.60;5.80;;;6.00;57.00;;;;;;5013241;28;20673;-81
2022/03/07 10:26:23;;;;;;;9.80;5.60;;;5.60;57.70;;;;;;5019950;28;20082;-82
2022/03/07 10:28:58;;;;;;;14.32;7.20;;;5.50;57.80;;;;;;5030225;28;20033;-81
2022/03/07 10:31:25;;;;;;;13.00;6.43;;;5.00;57.90;;;;;;5035829;28;20183;-81
2022/03/07 10:34:04;;;;;;;12.63;6.72;;;4.60;58.90;;;;;;5036988;28;20037;-81
2022/03/07 10:36:42;;;;;;;12.18;6.22;;;4.40;59.80;;;;;;5013773;28;20030;-82
2022/03/07 10:39:12;;;;;;;10.07;6.78;;;4.50;60.50;;;;;;5031443;28;20037;-81
2022/03/07 10:41:44;;;;;;;13.63;6.38;;;5.20;60.00;;;;;;5030445;28;20023;-81
2022/03/07 10:44:32;;;;;;;11.55;6.25;;;4.70;59.30;;;;;;5016752;28;20030;-81
2022/03/07 10:47:14;;;;;;;10.13;6.38;;;4.50;59.70;;;;;;5018945;28;20042;-84
2022/03/07 10:49:56;;;;;;;12.52;6.53;;;4.50;59.40;;;;;;5014472;28;20026;-81
2022/03/07 10:52:23;;;;;;;15.60;7.05;;;4.80;59.30;;;;;;5007622;28;20038;-83
2022/03/07 10:54:52;;;;;;;10.10;6.25;;;5.20;58.70;;;;;;5021440;28;20014;-86
2022/03/07 10:57:20;;;;;;;10.35;6.15;;;5.70;57.10;;;;;;5020763;28;20030;-82
2022/03/07 10:59:45;;;;;;;10.40;6.47;;;6.20;56.60;;;;;;5035793;28;20042;-82
2022/03/07 11:02:16;;;;;;;8.98;6.00;;;6.20;55.10;;;;;;5026409;28;20038;-81
2022/03/07 11:04:44;;;;;;;11.52;6.20;;;6.20;55.80;;;;;;5021748;28;20041;-80
2022/03/07 11:07:10;;;;;;;8.70;6.07;;;6.60;54.70;;;;;;5018611;28;20030;-82
2022/03/07 11:09:36;;;;;;;9.35;6.30;;;7.70;55.30;;;;;;5010289;28;20088;-80
2022/03/07 11:12:04;;;;;;;10.45;6.35;;;6.90;53.30;;;;;;5019259;28;20026;-81
2022/03/07 11:14:30;;;;;;;8.43;5.63;;;6.60;54.60;;;;;;5032840;28;20050;-82
2022/03/07 11:16:57;;;;;;;10.50;6.75;;;6.40;54.60;;;;;;5020231;28;20104;-83
2022/03/07 11:19:25;;;;;;;12.45;7.32;;;6.50;55.30;;;;;;5022015;28;20034;-82
2022/03/07 11:21:52;;;;;;;10.48;6.75;;;8.70;55.50;;;;;;5019606;28;20073;-78
2022/03/07 11:24:27;;;;;;;10.00;6.65;;;7.10;53.60;;;;;;5020414;28;20061;-83
2022/03/07 11:26:55;;;;;;;9.20;6.07;;;7.30;52.80;;;;;;5019392;28;20040;-82
2022/03/07 11:29:36;;;;;;;9.15;6.22;;;8.00;52.70;;;;;;5022252;28;20245;-81
2022/03/07 11:32:06;;;;;;;9.48;6.47;;;9.20;52.60;;;;;;5020069;28;20083;-82
2022/03/07 11:34:32;;;;;;;12.23;6.97;;;7.60;52.70;;;;;;5024154;28;20022;-84
2022/03/07 11:36:58;;;;;;;11.38;7.15;;;;;;;;;;5026991;28;20283;-81
2022/03/07 11:39:36;;;;;;;12.02;6.93;;;7.10;51.90;;;;;;5022216;28;20026;-83
2022/03/07 11:42:10;;;;;;;10.02;6.25;;;5.40;53.40;;;;;;5018857;28;20029;-80
2022/03/07 11:44:37;;;;;;;10.18;6.75;;;;;;;;;;5028277;28;20033;-85
2022/03/07 11:47:13;;;;;;;12.00;7.18;;;6.30;53.90;;;;;;5018114;28;20053;-83
2022/03/07 11:49:40;;;;;;;9.93;7.00;;;6.20;54.80;;;;;;5014289;28;20030;-83
2022/03/07 11:52:09;;;;;;;12.35;6.70;;;6.80;55.30;;;;;;5014395;28;20116;-83
2022/03/07 11:54:38;;;;;;;12.38;7.57;;;6.10;54.90;;;;;;4997761;28;20129;-82
2022/03/07 11:57:11;;;;;;;11.32;7.30;;;8.40;56.00;;;;;;5014329;28;20072;-81
2022/03/07 11:59:37;;;;;;;10.73;7.13;;;8.10;56.80;;;;;;5018717;28;20087;-81
2022/03/07 12:02:04;;;;;;;10.05;7.00;;;6.80;55.70;;;;;;5016035;28;20698;-81
2022/03/07 12:04:40;;;;;;;9.73;6.68;;;6.00;55.80;;;;;;5017997;28;20034;-86
2022/03/07 12:07:06;;;;;;;10.40;7.07;;;6.30;54.90;;;;;;5011832;28;20362;-81
2022/03/07 12:09:34;;;;;;;10.57;6.93;;;5.90;54.60;;;;;;5008170;28;20164;-83
2022/03/07 12:12:05;;;;;;;13.20;7.53;;;5.80;55.00;;;;;;5010301;28;20030;-83
2022/03/07 12:14:41;;;;;;;10.82;7.25;;;5.80;55.70;;;;;;5026101;28;20030;-81
2022/03/07 12:17:19;;;;;;;12.65;7.70;;;5.90;55.00;;;;;;5013068;28;20057;-83
2022/03/07 12:19:57;;;;;;;12.82;8.05;;;6.00;55.50;;;;;;5024405;28;20030;-83
2022/03/07 12:22:26;;;;;;;11.35;7.03;;;6.00;54.60;;;;;;5024208;28;20039;-82
2022/03/07 12:24:55;;;;;;;15.10;7.82;;;;;;;;;;5011889;28;20038;-81
2022/03/07 12:27:23;;;;;;;13.38;7.93;;;6.10;54.10;;;;;;5015887;28;20042;-81
2022/03/07 12:29:51;;;;;;;10.75;7.47;;;6.00;55.70;;;;;;5019806;28;20060;-81
2022/03/07 12:32:20;;;;;;;12.43;7.13;;;7.40;55.50;;;;;;5019930;28;20439;-82
2022/03/07 12:34:49;;;;;;;11.82;7.78;;;7.80;55.80;;;;;;5016699;28;20474;-81
2022/03/07 12:37:21;;;;;;;13.48;7.72;;;6.20;54.40;;;;;;5015001;28;20052;-82
2022/03/07 12:39:53;;;;;;;11.68;7.20;;;6.10;54.10;;;;;;5018820;28;20513;-81
2022/03/07 12:42:25;;;;;;;11.63;7.55;;;6.10;54.00;;;;;;5020160;28;20041;-82
2022/03/07 12:44:51;;;;;;;10.68;7.07;;;6.10;54.00;;;;;;5017071;28;20042;-84
2022/03/07 12:47:24;;;;;;;12.57;7.40;;;6.20;53.80;;;;;;5011135;28;20026;-81
2022/03/07 12:49:51;;;;;;;10.75;7.15;;;6.30;54.10;;;;;;5013716;28;20057;-80
2022/03/07 12:52:29;;;;;;;11.45;7.18;;;5.80;54.60;;;;;;5034196;28;20038;-81
2022/03/07 12:54:56;;;;;;;11.55;7.43;;;6.40;54.30;;;;;;5017346;28;20026;-81
2022/03/07 12:57:22;;;;;;;11.32;7.90;;;6.60;53.80;;;;;;5019340;28;20037;-83
2022/03/07 12:59:55;;;;;;;10.40;7.30;;;6.60;54.30;;;;;;5029961;28;20027;-82
2022/03/07 13:02:21;;;;;;;10.98;7.80;;;6.90;53.70;;;;;;5016010;28;20034;-82
2022/03/07 13:04:53;;;;;;;13.27;7.72;;;6.70;53.80;;;;;;5011902;28;20365;-81
2022/03/07 13:07:19;;;;;;;11.95;6.85;;;6.70;53.70;;;;;;5011863;28;20091;-81
2022/03/07 13:09:45;;;;;;;10.95;7.00;;;6.70;53.60;;;;;;5029670;28;20022;-79
2022/03/07 13:12:11;;;;;;;12.75;7.55;;;6.80;53.10;;;;;;5011547;28;20113;-81
2022/03/07 13:14:38;;;;;;;12.95;8.18;;;8.00;53.90;;;;;;5008935;28;20033;-82
2022/03/07 13:17:06;;;;;;;10.55;7.60;;;6.60;53.20;;;;;;5011844;28;20034;-82
2022/03/07 13:19:32;;;;;;;9.98;6.97;;;6.50;53.40;;;;;;5013099;28;20189;-81
2022/03/07 13:21:58;;;;;;;12.07;7.07;;;6.30;53.80;;;;;;5012384;28;20497;-81
2022/03/07 13:24:28;;;;;;;15.93;7.05;;;6.30;53.50;;;;;;5017237;28;20025;-81
2022/03/07 13:27:07;;;;;;;11.27;6.17;;;6.60;53.10;;;;;;5024118;28;20037;-81